Cretcher, Missouri
Current Conditions -  °F | °C
As of 10:55 AM on Friday 19 Dec 2014 (Local Time) from KSZL Reporting Station
Haze Haze  
Wind Chill: 35°   Ceiling: 600
Heat Index: 35°   Visibility: 6mi
Dew Point: 34°   Wind: 3mph
Humidity: 97%   Direction: 160°SSE
Pressure: 30.28"   Gusts: NA
Location:  38.9707°N, 93.4332°W
Report Text: KSZL 191655Z 16003KT 6SM BR OVC006 01/01 A3028 RMK AO2A SLP262 T00140010 $
Loading
Personal Weather Stations






























Interactive Weather Map New forecast layout! Learn more

10-Day Weather Forecast

Advertisements
Track Severe Weather on mobile